createdAt,value
2022-09-21T00:00:33.907Z,8.98
2022-09-21T00:01:33.974Z,8.98
2022-09-21T00:02:33.929Z,8.92
2022-09-21T00:03:33.948Z,8.92
2022-09-21T00:04:34.045Z,8.98
2022-09-21T00:05:33.936Z,8.98
2022-09-21T00:06:33.911Z,8.98
2022-09-21T00:07:33.915Z,8.98
2022-09-21T00:08:33.894Z,8.98
2022-09-21T00:09:33.956Z,8.98
2022-09-21T00:10:33.948Z,8.98
2022-09-21T00:11:33.955Z,8.98
2022-09-21T00:12:34.045Z,8.98
2022-09-21T00:13:33.903Z,8.98
2022-09-21T00:14:33.886Z,9.04
2022-09-21T00:15:33.918Z,9.04
2022-09-21T00:16:33.953Z,9.04
2022-09-21T00:17:34.014Z,9.04
2022-09-21T00:18:33.883Z,9.04
2022-09-21T00:19:34.025Z,8.98
2022-09-21T00:20:33.967Z,8.98
2022-09-21T00:21:33.963Z,8.92
2022-09-21T00:22:33.890Z,8.92
2022-09-21T00:23:34.013Z,8.92
2022-09-21T00:24:33.894Z,8.92
2022-09-21T00:25:33.922Z,8.92
2022-09-21T00:26:33.892Z,8.92
2022-09-21T00:27:33.948Z,8.92
2022-09-21T00:28:33.934Z,8.98
2022-09-21T00:29:33.886Z,9.04
2022-09-21T00:30:33.906Z,8.98
2022-09-21T00:31:33.951Z,8.98
2022-09-21T00:32:33.896Z,8.98
2022-09-21T00:33:33.917Z,8.92
2022-09-21T00:34:33.928Z,8.87
2022-09-21T00:35:34.021Z,8.81
2022-09-21T00:36:33.895Z,8.87
2022-09-21T00:37:33.939Z,8.87
2022-09-21T00:38:33.894Z,8.87
2022-09-21T00:39:33.958Z,8.81
2022-09-21T00:40:33.928Z,8.81
2022-09-21T00:41:33.900Z,8.81
2022-09-21T00:42:33.977Z,8.7
2022-09-21T00:43:33.973Z,8.7
2022-09-21T00:44:33.992Z,8.7
2022-09-21T00:45:34.034Z,8.64
2022-09-21T00:46:33.912Z,8.64
2022-09-21T00:47:33.898Z,8.64
2022-09-21T00:48:33.955Z,8.7
2022-09-21T00:49:33.909Z,8.7
2022-09-21T00:50:33.950Z,8.7
2022-09-21T00:51:33.971Z,8.64
2022-09-21T00:52:33.903Z,8.64
2022-09-21T00:53:33.901Z,8.59
2022-09-21T00:54:33.893Z,8.59
2022-09-21T00:55:33.903Z,8.59
2022-09-21T00:56:33.901Z,8.59
2022-09-21T00:57:33.903Z,8.59
2022-09-21T00:58:33.943Z,8.59
2022-09-21T00:59:33.896Z,8.59
2022-09-21T01:00:33.898Z,8.53
2022-09-21T01:01:33.895Z,8.59
2022-09-21T01:02:34.001Z,8.59
2022-09-21T01:03:33.902Z,8.64
2022-09-21T01:04:33.926Z,8.7
2022-09-21T01:05:33.946Z,8.7
2022-09-21T01:06:33.955Z,8.64
2022-09-21T01:07:33.895Z,8.64
2022-09-21T01:08:33.938Z,8.64
2022-09-21T01:09:33.925Z,8.59
2022-09-21T01:10:33.898Z,8.59
2022-09-21T01:11:33.947Z,8.59
2022-09-21T01:12:33.911Z,8.53
2022-09-21T01:13:33.946Z,8.48
2022-09-21T01:14:33.989Z,8.42
2022-09-21T01:15:33.905Z,8.42
2022-09-21T01:16:33.953Z,8.42
2022-09-21T01:17:33.903Z,8.42
2022-09-21T01:18:33.993Z,8.42
2022-09-21T01:19:33.907Z,8.42
2022-09-21T01:20:33.922Z,8.42
2022-09-21T01:21:34.148Z,8.42
2022-09-21T01:22:34.016Z,8.42
2022-09-21T01:23:34.031Z,8.37
2022-09-21T01:24:34.085Z,8.37
2022-09-21T01:25:34.209Z,8.37
2022-09-21T01:26:33.921Z,8.37
2022-09-21T01:27:33.976Z,8.37
2022-09-21T01:28:33.897Z,8.37
2022-09-21T01:29:33.950Z,8.42
2022-09-21T01:30:34.082Z,8.37
2022-09-21T01:31:33.926Z,8.42
2022-09-21T01:32:33.917Z,8.42
2022-09-21T01:33:33.899Z,8.42
2022-09-21T01:34:33.905Z,8.48
2022-09-21T01:35:33.894Z,8.48
2022-09-21T01:36:33.905Z,8.48
2022-09-21T01:37:33.941Z,8.53
2022-09-21T01:38:33.907Z,8.48
2022-09-21T01:39:33.901Z,8.48
2022-09-21T01:40:35.829Z,8.53
2022-09-21T01:41:33.944Z,8.53
2022-09-21T01:42:33.922Z,8.53
2022-09-21T01:43:33.896Z,8.53
2022-09-21T01:44:33.971Z,8.53
2022-09-21T01:45:34.326Z,8.53
2022-09-21T01:46:33.903Z,8.48
2022-09-21T01:47:33.894Z,8.48
2022-09-21T01:48:33.898Z,8.53
2022-09-21T01:49:33.985Z,8.53
2022-09-21T01:50:33.891Z,8.53
2022-09-21T01:51:33.890Z,8.53
2022-09-21T01:52:33.951Z,8.53
2022-09-21T01:53:33.986Z,8.59
2022-09-21T01:54:33.921Z,8.59
2022-09-21T01:55:33.924Z,8.59
2022-09-21T01:56:33.930Z,8.64
2022-09-21T01:57:33.917Z,8.64
2022-09-21T01:58:34.053Z,8.59
2022-09-21T01:59:33.904Z,8.59
2022-09-21T02:00:33.972Z,8.53
2022-09-21T02:01:33.966Z,8.53
2022-09-21T02:02:33.894Z,8.53
2022-09-21T02:03:33.918Z,8.53
2022-09-21T02:04:33.891Z,8.53
2022-09-21T02:05:33.892Z,8.53
2022-09-21T02:06:33.895Z,8.53
2022-09-21T02:07:33.899Z,8.59
2022-09-21T02:08:33.941Z,8.53
2022-09-21T02:09:33.909Z,8.59
2022-09-21T02:10:33.914Z,8.59
2022-09-21T02:11:33.891Z,8.59
2022-09-21T02:12:33.966Z,8.64
2022-09-21T02:13:33.885Z,8.7
2022-09-21T02:14:33.895Z,8.64
2022-09-21T02:15:33.946Z,8.64
2022-09-21T02:16:33.981Z,8.59
2022-09-21T02:17:33.893Z,8.59
2022-09-21T02:18:33.946Z,8.53
2022-09-21T02:19:33.902Z,8.53
2022-09-21T02:20:33.885Z,8.48
2022-09-21T02:21:33.894Z,8.48
2022-09-21T02:22:33.904Z,8.42
2022-09-21T02:23:33.948Z,8.42
2022-09-21T02:24:33.952Z,8.42
2022-09-21T02:25:33.901Z,8.42
2022-09-21T02:26:33.902Z,8.37
2022-09-21T02:27:33.912Z,8.37
2022-09-21T02:28:33.905Z,8.37
2022-09-21T02:29:33.900Z,8.42
2022-09-21T02:30:33.908Z,8.37
2022-09-21T02:31:33.962Z,8.37
2022-09-21T02:32:33.998Z,8.37
2022-09-21T02:33:33.894Z,8.42
2022-09-21T02:34:33.902Z,8.42
2022-09-21T02:35:33.902Z,8.48
2022-09-21T02:36:33.913Z,8.42
2022-09-21T02:37:33.995Z,8.42
2022-09-21T02:38:33.903Z,8.48
2022-09-21T02:39:34.007Z,8.42
2022-09-21T02:40:34.034Z,8.48
2022-09-21T02:41:33.917Z,8.42
2022-09-21T02:42:33.896Z,8.42
2022-09-21T02:43:33.932Z,8.42
2022-09-21T02:44:33.902Z,8.48
2022-09-21T02:45:33.903Z,8.48
2022-09-21T02:46:33.947Z,8.42
2022-09-21T02:47:33.980Z,8.42
2022-09-21T02:48:33.904Z,8.48
2022-09-21T02:49:33.897Z,8.48
2022-09-21T02:50:33.988Z,8.42
2022-09-21T02:51:33.903Z,8.42
2022-09-21T02:52:33.910Z,8.42
2022-09-21T02:53:33.902Z,8.42
2022-09-21T02:54:33.961Z,8.37
2022-09-21T02:55:33.952Z,8.31
2022-09-21T02:56:33.904Z,8.26
2022-09-21T02:57:33.913Z,8.26
2022-09-21T02:58:33.905Z,8.21
2022-09-21T02:59:33.894Z,8.21
2022-09-21T03:00:33.953Z,8.15
2022-09-21T03:01:33.995Z,8.15
2022-09-21T03:02:33.942Z,8.15
2022-09-21T03:03:33.957Z,8.1
2022-09-21T03:04:33.899Z,8.1
2022-09-21T03:05:33.904Z,8.1
2022-09-21T03:06:33.911Z,8.05
2022-09-21T03:07:34.019Z,8.05
2022-09-21T03:08:33.951Z,8
2022-09-21T03:09:33.998Z,8
2022-09-21T03:10:33.950Z,7.95
2022-09-21T03:11:33.992Z,7.95
2022-09-21T03:12:34.098Z,7.89
2022-09-21T03:13:34.091Z,7.89
2022-09-21T03:14:34.166Z,7.89
2022-09-21T03:15:34.085Z,7.89
2022-09-21T03:16:33.894Z,7.84
2022-09-21T03:17:33.941Z,7.84
2022-09-21T03:18:33.969Z,7.84
2022-09-21T03:19:33.902Z,7.84
2022-09-21T03:20:33.910Z,7.84
2022-09-21T03:21:33.902Z,7.89
2022-09-21T03:22:33.973Z,7.89
2022-09-21T03:23:33.924Z,7.95
2022-09-21T03:24:33.913Z,7.95
2022-09-21T03:25:33.967Z,8
2022-09-21T03:26:34.027Z,8
2022-09-21T03:27:33.899Z,8
2022-09-21T03:28:33.899Z,8
2022-09-21T03:29:33.905Z,8
2022-09-21T03:30:33.923Z,7.95
2022-09-21T03:31:33.938Z,7.95
2022-09-21T03:32:33.908Z,7.95
2022-09-21T03:33:33.958Z,7.89
2022-09-21T03:34:34.004Z,7.95
2022-09-21T03:35:33.914Z,7.95
2022-09-21T03:36:33.956Z,7.95
2022-09-21T03:37:36.094Z,7.95
2022-09-21T03:38:33.894Z,7.89
2022-09-21T03:39:33.991Z,7.84
2022-09-21T03:40:33.974Z,7.89
2022-09-21T03:41:33.954Z,7.89
2022-09-21T03:42:33.942Z,7.89
2022-09-21T03:43:33.900Z,7.89
2022-09-21T03:44:34.018Z,7.89
2022-09-21T03:45:33.895Z,7.89
2022-09-21T03:46:33.904Z,7.89
2022-09-21T03:47:33.913Z,7.89
2022-09-21T03:48:33.899Z,7.84
2022-09-21T03:49:34.068Z,7.84
2022-09-21T03:50:33.983Z,7.79
2022-09-21T03:51:33.905Z,7.79
2022-09-21T03:52:33.913Z,7.79
2022-09-21T03:53:33.939Z,7.79
2022-09-21T03:54:33.904Z,7.84
2022-09-21T03:55:33.902Z,7.89
2022-09-21T03:56:33.989Z,7.89
2022-09-21T03:57:33.971Z,7.95
2022-09-21T03:58:33.898Z,7.95
2022-09-21T03:59:33.902Z,7.89
2022-09-21T04:00:33.903Z,7.95
2022-09-21T04:01:34.053Z,7.95
2022-09-21T04:02:33.977Z,7.95
2022-09-21T04:03:33.906Z,7.95
2022-09-21T04:04:34.037Z,8
2022-09-21T04:05:34.049Z,7.95
2022-09-21T04:06:33.933Z,7.95
2022-09-21T04:07:33.910Z,7.89
2022-09-21T04:08:33.907Z,7.89
2022-09-21T04:09:33.912Z,7.84
2022-09-21T04:10:33.960Z,7.79
2022-09-21T04:11:33.904Z,7.74
2022-09-21T04:12:33.952Z,7.74
2022-09-21T04:13:33.989Z,7.74
2022-09-21T04:14:33.902Z,7.79
2022-09-21T04:15:33.936Z,7.74
2022-09-21T04:16:33.895Z,7.79
2022-09-21T04:17:33.907Z,7.79
2022-09-21T04:18:33.949Z,7.79
2022-09-21T04:19:33.952Z,7.84
2022-09-21T04:20:33.983Z,7.84
2022-09-21T04:21:34.065Z,7.84
2022-09-21T04:22:33.917Z,7.84
2022-09-21T04:23:33.906Z,7.79
2022-09-21T04:24:33.902Z,7.79
2022-09-21T04:25:33.909Z,7.79
2022-09-21T04:26:33.906Z,7.79
2022-09-21T04:27:33.900Z,7.79
2022-09-21T04:28:33.994Z,7.79
2022-09-21T04:29:33.995Z,7.74
2022-09-21T04:30:37.515Z,7.74
2022-09-21T04:31:33.931Z,7.74
2022-09-21T04:32:33.956Z,7.79
2022-09-21T04:33:33.900Z,7.79
2022-09-21T04:34:33.902Z,7.79
2022-09-21T04:35:33.900Z,7.79
2022-09-21T04:36:36.610Z,7.79
2022-09-21T04:37:33.900Z,7.79
2022-09-21T04:38:33.903Z,7.74
2022-09-21T04:39:33.923Z,7.74
2022-09-21T04:40:34.116Z,7.74
2022-09-21T04:41:33.921Z,7.69
2022-09-21T04:42:33.907Z,7.69
2022-09-21T04:43:34.007Z,7.74
2022-09-21T04:44:33.946Z,7.69
2022-09-21T04:45:33.999Z,7.64
2022-09-21T04:46:33.960Z,7.59
2022-09-21T04:47:33.910Z,7.64
2022-09-21T04:48:33.909Z,7.59
2022-09-21T04:49:33.914Z,7.59
2022-09-21T04:50:33.900Z,7.59
2022-09-21T04:51:33.959Z,7.64
2022-09-21T04:52:33.942Z,7.59
2022-09-21T04:53:33.929Z,7.59
2022-09-21T04:54:33.918Z,7.59
2022-09-21T04:55:33.912Z,7.64
2022-09-21T04:56:33.909Z,7.64
2022-09-21T04:57:33.907Z,7.59
2022-09-21T04:58:34.012Z,7.59
2022-09-21T04:59:33.981Z,7.59
2022-09-21T05:00:33.950Z,7.59
2022-09-21T05:01:33.934Z,7.59
2022-09-21T05:02:33.905Z,7.59
2022-09-21T05:03:33.954Z,7.64
2022-09-21T05:04:33.918Z,7.64
2022-09-21T05:05:33.957Z,7.59
2022-09-21T05:06:33.903Z,7.59
2022-09-21T05:07:33.946Z,7.59
2022-09-21T05:08:34.004Z,7.59
2022-09-21T05:09:33.901Z,7.54
2022-09-21T05:10:33.920Z,7.59
2022-09-21T05:11:33.905Z,7.54
2022-09-21T05:12:33.900Z,7.59
2022-09-21T05:13:33.903Z,7.59
2022-09-21T05:14:33.914Z,7.59
2022-09-21T05:15:33.998Z,7.54
2022-09-21T05:16:33.908Z,7.49
2022-09-21T05:17:34.003Z,7.49
2022-09-21T05:18:33.909Z,7.49
2022-09-21T05:19:33.908Z,7.54
2022-09-21T05:20:33.897Z,7.49
2022-09-21T05:21:33.915Z,7.44
2022-09-21T05:22:34.087Z,7.44
2022-09-21T05:23:33.960Z,7.49
2022-09-21T05:24:33.897Z,7.44
2022-09-21T05:25:33.905Z,7.44
2022-09-21T05:26:33.916Z,7.49
2022-09-21T05:27:33.919Z,7.54
2022-09-21T05:28:39.099Z,7.54
2022-09-21T05:29:33.904Z,7.54
2022-09-21T05:30:34.021Z,7.59
2022-09-21T05:31:34.061Z,7.54
2022-09-21T05:32:33.920Z,7.59
2022-09-21T05:33:33.966Z,7.59
2022-09-21T05:34:36.639Z,7.59
2022-09-21T05:35:33.899Z,7.54
2022-09-21T05:36:33.955Z,7.54
2022-09-21T05:37:33.900Z,7.49
2022-09-21T05:38:33.975Z,7.49
2022-09-21T05:39:33.982Z,7.49
2022-09-21T05:40:33.973Z,7.49
2022-09-21T05:41:33.909Z,7.49
2022-09-21T05:42:33.929Z,7.49
2022-09-21T05:43:33.905Z,7.54
2022-09-21T05:44:33.912Z,7.54
2022-09-21T05:45:33.905Z,7.59
2022-09-21T05:46:33.951Z,7.59
2022-09-21T05:47:33.897Z,7.59
2022-09-21T05:48:33.918Z,7.59
2022-09-21T05:49:33.903Z,7.59
2022-09-21T05:50:33.949Z,7.59
2022-09-21T05:51:33.910Z,7.54
2022-09-21T05:52:33.917Z,7.54
2022-09-21T05:53:33.993Z,7.59
2022-09-21T05:54:33.971Z,7.64
2022-09-21T05:55:33.910Z,7.59
2022-09-21T05:56:33.915Z,7.59
2022-09-21T05:57:33.929Z,7.59
2022-09-21T05:58:33.917Z,7.59
2022-09-21T05:59:33.908Z,7.59
2022-09-21T06:00:33.901Z,7.64
2022-09-21T06:01:34.100Z,7.64
2022-09-21T06:02:33.991Z,7.69
2022-09-21T06:03:33.926Z,7.69
2022-09-21T06:04:33.960Z,7.69
2022-09-21T06:05:33.907Z,7.74
2022-09-21T06:06:33.902Z,7.74
2022-09-21T06:07:33.942Z,7.69
2022-09-21T06:08:33.905Z,7.74
2022-09-21T06:09:33.953Z,7.74
2022-09-21T06:10:33.985Z,7.74
2022-09-21T06:11:33.917Z,7.84
2022-09-21T06:12:33.905Z,7.79
2022-09-21T06:13:33.929Z,7.84
2022-09-21T06:14:33.912Z,7.84
2022-09-21T06:15:33.968Z,7.84
2022-09-21T06:16:34.004Z,7.84
2022-09-21T06:17:34.116Z,7.84
2022-09-21T06:18:34.200Z,7.84
2022-09-21T06:19:34.005Z,7.84
2022-09-21T06:20:34.215Z,7.89
2022-09-21T06:21:34.304Z,7.89
2022-09-21T06:22:33.900Z,7.95
2022-09-21T06:23:33.916Z,7.95
2022-09-21T06:24:33.927Z,7.95
2022-09-21T06:25:33.950Z,8
2022-09-21T06:26:33.915Z,8
2022-09-21T06:27:33.910Z,8.05
2022-09-21T06:28:33.892Z,8.1
2022-09-21T06:29:33.896Z,8.1
2022-09-21T06:30:33.924Z,8.05
2022-09-21T06:31:33.907Z,8
2022-09-21T06:32:33.963Z,8.05
2022-09-21T06:33:33.947Z,8
2022-09-21T06:34:33.926Z,8
2022-09-21T06:35:33.903Z,8.05
2022-09-21T06:36:33.919Z,8.1
2022-09-21T06:37:33.903Z,8.05
2022-09-21T06:38:33.890Z,8.15
2022-09-21T06:39:33.898Z,8.15
2022-09-21T06:40:34.009Z,8.26
2022-09-21T06:41:33.982Z,8.26
2022-09-21T06:42:33.906Z,8.26
2022-09-21T06:43:34.054Z,8.37
2022-09-21T06:44:33.915Z,8.42
2022-09-21T06:45:33.992Z,8.48
2022-09-21T06:46:33.963Z,8.53
2022-09-21T06:47:33.901Z,8.53
2022-09-21T06:48:33.961Z,8.53
2022-09-21T06:49:34.075Z,8.48
2022-09-21T06:50:33.920Z,8.53
2022-09-21T06:51:33.996Z,8.48
2022-09-21T06:52:33.906Z,8.53
2022-09-21T06:53:33.897Z,8.48
2022-09-21T06:54:33.989Z,8.53
2022-09-21T06:55:33.947Z,8.59
2022-09-21T06:56:33.955Z,8.59
2022-09-21T06:57:34.034Z,8.59
2022-09-21T06:58:33.935Z,8.64
2022-09-21T06:59:33.939Z,8.7
2022-09-21T07:00:33.922Z,8.7
2022-09-21T07:01:34.100Z,8.64
2022-09-21T07:02:33.904Z,8.75
2022-09-21T07:03:33.993Z,8.81
2022-09-21T07:04:33.948Z,8.81
2022-09-21T07:05:33.911Z,8.75
2022-09-21T07:06:33.913Z,8.75
2022-09-21T07:07:33.922Z,8.81
2022-09-21T07:10:33.920Z,8.81
2022-09-21T07:11:33.913Z,8.81
2022-09-21T07:12:33.957Z,8.81
2022-09-21T07:13:33.910Z,8.87
2022-09-21T07:14:33.930Z,8.92
2022-09-21T07:15:33.904Z,8.92
2022-09-21T07:16:33.929Z,9.04
2022-09-21T07:17:33.906Z,9.1
2022-09-21T07:18:42.690Z,9.1
2022-09-21T07:19:33.967Z,9.1
2022-09-21T07:20:33.955Z,9.04
2022-09-21T07:21:33.902Z,9.15
2022-09-21T07:22:33.903Z,9.15
2022-09-21T07:23:33.917Z,9.27
2022-09-21T07:24:34.000Z,9.15
2022-09-21T07:25:33.895Z,9.15
2022-09-21T07:26:33.985Z,9.21
2022-09-21T07:27:34.011Z,9.15
2022-09-21T07:28:34.004Z,9.15
2022-09-21T07:29:33.917Z,9.15
2022-09-21T07:30:33.909Z,9.1
2022-09-21T07:31:34.015Z,9.1
2022-09-21T07:32:33.920Z,9.04
2022-09-21T07:33:36.170Z,9.04
2022-09-21T07:34:33.912Z,9.15
2022-09-21T07:35:33.957Z,9.15
2022-09-21T07:36:34.080Z,9.15
2022-09-21T07:37:33.899Z,9.15
2022-09-21T07:38:33.891Z,9.15
2022-09-21T07:39:33.931Z,9.21
2022-09-21T07:40:33.955Z,9.27
2022-09-21T07:41:33.903Z,9.33
2022-09-21T07:42:33.901Z,9.39
2022-09-21T07:43:33.959Z,9.45
2022-09-21T07:44:33.903Z,9.45
2022-09-21T07:45:33.962Z,9.57
2022-09-21T07:46:33.926Z,9.57
2022-09-21T07:47:33.968Z,9.63
2022-09-21T07:48:33.894Z,9.51
2022-09-21T07:49:33.908Z,9.57
2022-09-21T07:50:33.956Z,9.57
2022-09-21T07:51:33.950Z,9.51
2022-09-21T07:52:33.903Z,9.45
2022-09-21T07:53:33.918Z,9.45
2022-09-21T07:54:33.980Z,9.57
2022-09-21T07:55:33.922Z,9.63
2022-09-21T07:56:33.906Z,9.63
2022-09-21T07:57:33.938Z,9.51
2022-09-21T07:58:33.964Z,9.51
2022-09-21T07:59:33.984Z,9.57
2022-09-21T08:00:33.935Z,9.51
2022-09-21T08:01:33.966Z,9.45
2022-09-21T08:02:34.052Z,9.51
2022-09-21T08:03:33.893Z,9.45
2022-09-21T08:04:33.944Z,9.51
2022-09-21T08:05:33.907Z,9.69
2022-09-21T08:06:33.951Z,9.76
2022-09-21T08:07:33.988Z,9.76
2022-09-21T08:08:34.070Z,9.88
2022-09-21T08:09:33.977Z,9.82
2022-09-21T08:10:33.909Z,9.88
2022-09-21T08:11:33.899Z,9.88
2022-09-21T08:12:33.995Z,10
2022-09-21T08:13:33.916Z,9.94
2022-09-21T08:14:33.948Z,9.94
2022-09-21T08:15:50.449Z,9.94
2022-09-21T08:16:34.215Z,9.94
2022-09-21T08:17:33.949Z,10
2022-09-21T08:18:33.896Z,10.07
2022-09-21T08:19:33.904Z,10
2022-09-21T08:20:33.952Z,10.07
2022-09-21T08:21:33.900Z,10
2022-09-21T08:22:33.972Z,9.94
2022-09-21T08:23:33.970Z,9.94
2022-09-21T08:24:33.905Z,10
2022-09-21T08:25:33.973Z,10.07
2022-09-21T08:26:34.014Z,10
2022-09-21T08:27:33.920Z,10
2022-09-21T08:28:33.927Z,10
2022-09-21T08:29:34.001Z,10.07
2022-09-21T08:30:33.951Z,10.2
2022-09-21T08:31:34.128Z,10.26
2022-09-21T08:32:50.567Z,10.26
2022-09-21T08:33:33.909Z,10.32
2022-09-21T08:34:33.910Z,10.39
2022-09-21T08:35:33.940Z,10.39
2022-09-21T08:36:33.958Z,10.39
2022-09-21T08:37:33.943Z,10.32
2022-09-21T08:38:33.995Z,10.39
2022-09-21T08:39:33.968Z,10.46
2022-09-21T08:40:34.028Z,10.52
2022-09-21T08:41:33.903Z,10.59
2022-09-21T08:42:33.901Z,10.65
2022-09-21T08:43:33.972Z,10.65
2022-09-21T08:44:33.909Z,10.65
2022-09-21T08:45:33.945Z,10.72
2022-09-21T08:46:34.127Z,10.79
2022-09-21T08:47:33.906Z,10.65
2022-09-21T08:48:36.782Z,10.72
2022-09-21T08:49:33.907Z,10.79
2022-09-21T08:50:33.902Z,10.85
2022-09-21T08:51:33.904Z,10.92
2022-09-21T08:52:33.901Z,10.99
2022-09-21T08:53:33.953Z,10.92
2022-09-21T08:54:33.917Z,10.85
2022-09-21T08:55:33.901Z,10.85
2022-09-21T08:57:00.501Z,10.99
2022-09-21T08:57:33.978Z,10.92
2022-09-21T08:58:33.991Z,10.99
2022-09-21T08:59:33.926Z,11.06
2022-09-21T09:00:33.941Z,11.13
2022-09-21T09:01:34.030Z,11.2
2022-09-21T09:02:33.911Z,11.27
2022-09-21T09:03:33.910Z,11.41
2022-09-21T09:04:33.925Z,11.48
2022-09-21T09:05:33.930Z,11.48
2022-09-21T09:06:33.912Z,11.48
2022-09-21T09:07:33.915Z,11.55
2022-09-21T09:08:33.989Z,11.55
2022-09-21T09:09:34.064Z,11.62
2022-09-21T09:10:33.965Z,11.69
2022-09-21T09:11:33.912Z,11.77
2022-09-21T09:12:33.902Z,11.84
2022-09-21T09:13:33.903Z,11.84
2022-09-21T09:14:34.010Z,11.77
2022-09-21T09:15:33.988Z,11.84
2022-09-21T09:16:34.064Z,11.77
2022-09-21T09:17:33.958Z,11.69
2022-09-21T09:18:33.904Z,11.69
2022-09-21T09:19:33.967Z,11.77
2022-09-21T09:20:33.905Z,11.91
2022-09-21T09:21:33.897Z,11.99
2022-09-21T09:22:33.912Z,12.06
2022-09-21T09:23:33.905Z,12.21
2022-09-21T09:24:33.957Z,12.21
2022-09-21T09:25:34.054Z,12.28
2022-09-21T09:26:33.924Z,12.36
2022-09-21T09:27:33.915Z,12.44
2022-09-21T09:28:33.975Z,12.44
2022-09-21T09:29:33.905Z,12.21
2022-09-21T09:30:33.932Z,12.21
2022-09-21T09:31:33.976Z,12.36
2022-09-21T09:32:33.969Z,12.21
2022-09-21T09:33:33.991Z,12.28
2022-09-21T09:34:34.012Z,12.36
2022-09-21T09:35:33.915Z,12.28
2022-09-21T09:36:56.745Z,12.44
2022-09-21T09:37:33.902Z,12.59
2022-09-21T09:38:33.908Z,12.67
2022-09-21T09:39:33.918Z,12.59
2022-09-21T09:40:34.000Z,12.44
2022-09-21T09:41:33.952Z,12.59
2022-09-21T09:42:33.914Z,12.74
2022-09-21T09:43:33.905Z,12.67
2022-09-21T09:44:33.915Z,12.82
2022-09-21T09:45:33.984Z,12.9
2022-09-21T09:46:34.024Z,12.98
2022-09-21T09:47:34.004Z,13.06
2022-09-21T09:48:33.944Z,12.98
2022-09-21T09:49:34.004Z,13.06
2022-09-21T09:50:34.004Z,13.14
2022-09-21T09:51:33.905Z,12.75
2022-09-21T09:52:33.914Z,13.14
2022-09-21T09:53:33.931Z,13.22
2022-09-21T09:54:33.920Z,13.14
2022-09-21T09:55:34.044Z,13.14
2022-09-21T09:56:34.050Z,12.8
2022-09-21T09:57:33.921Z,13.3
2022-09-21T09:58:34.057Z,13.09
2022-09-21T09:59:33.959Z,12.83
2022-09-21T10:00:33.925Z,12.17
2022-09-21T10:01:34.013Z,11.79
2022-09-21T10:02:33.910Z,11.01
2022-09-21T10:03:33.964Z,11.36
2022-09-21T10:04:34.031Z,12.05
2022-09-21T10:05:33.953Z,12.45
2022-09-21T10:06:33.966Z,11.09
2022-09-21T10:07:34.052Z,10.92
2022-09-21T10:08:33.912Z,12.04
2022-09-21T10:09:33.913Z,10.81
2022-09-21T10:10:33.927Z,10.32
2022-09-21T10:11:34.008Z,11.34
2022-09-21T10:12:33.997Z,11.71
2022-09-21T10:13:33.953Z,12.2
2022-09-21T10:14:33.922Z,11.97
2022-09-21T10:15:34.059Z,11.54
2022-09-21T10:16:34.010Z,11.19
2022-09-21T10:17:33.917Z,11.69
2022-09-21T10:18:33.960Z,11.38
2022-09-21T10:19:33.959Z,11.95
2022-09-21T10:20:33.903Z,12.6
2022-09-21T10:21:33.913Z,11.78
2022-09-21T10:22:33.925Z,11.86
2022-09-21T10:23:33.993Z,12.2
2022-09-21T10:24:34.036Z,11.92
2022-09-21T10:25:38.043Z,11.54
2022-09-21T10:26:34.049Z,11.92
2022-09-21T10:27:33.968Z,12.19
2022-09-21T10:28:34.001Z,11.94
2022-09-21T10:29:33.960Z,11.88
2022-09-21T10:30:33.915Z,11.37
2022-09-21T10:31:33.978Z,11.31
2022-09-21T10:32:33.961Z,11.41
2022-09-21T10:33:33.918Z,11.06
2022-09-21T10:34:33.962Z,11.77
2022-09-21T10:35:34.161Z,11.21
2022-09-21T10:36:33.924Z,10.91
2022-09-21T10:37:34.014Z,11.38
2022-09-21T10:38:33.923Z,12.02
2022-09-21T10:39:33.915Z,11.26
2022-09-21T10:40:34.080Z,12.16
2022-09-21T10:41:33.921Z,10.66
2022-09-21T10:42:34.050Z,11.38
2022-09-21T10:43:35.932Z,11.45
2022-09-21T10:44:33.980Z,11.28
2022-09-21T10:45:33.926Z,10.34
2022-09-21T10:46:34.045Z,10.8
2022-09-21T10:47:33.919Z,11.33
2022-09-21T10:48:33.918Z,10.96
2022-09-21T10:49:33.984Z,11
2022-09-21T10:50:33.980Z,11.57
2022-09-21T10:51:33.984Z,10.59
2022-09-21T10:52:33.918Z,10.79
2022-09-21T10:53:33.919Z,10.31
2022-09-21T10:54:34.039Z,10.21
2022-09-21T10:55:34.029Z,11.32
2022-09-21T10:56:33.928Z,11.12
2022-09-21T10:57:33.923Z,9.4
2022-09-21T10:58:33.956Z,9.23
2022-09-21T10:59:33.922Z,9.22
2022-09-21T11:00:33.917Z,9.5
2022-09-21T11:01:34.002Z,9.46
2022-09-21T11:02:34.005Z,9.45
2022-09-21T11:03:33.941Z,9.52
2022-09-21T11:04:33.919Z,9.65
2022-09-21T11:05:33.981Z,10.37
2022-09-21T11:06:33.967Z,9.46
2022-09-21T11:07:33.931Z,9.09
2022-09-21T11:08:33.975Z,9.15
2022-09-21T11:09:33.944Z,9.17
2022-09-21T11:10:34.639Z,9.2
2022-09-21T11:11:33.913Z,9.27
2022-09-21T11:12:33.936Z,9.31
2022-09-21T11:13:33.967Z,10
2022-09-21T11:14:34.032Z,10.22
2022-09-21T11:15:34.093Z,9.98
2022-09-21T11:16:33.917Z,10.47
2022-09-21T11:17:33.925Z,10.55
2022-09-21T11:18:33.925Z,10.05
2022-09-21T11:19:33.976Z,10.17
2022-09-21T11:20:33.914Z,9.79
2022-09-21T11:21:33.977Z,11.17
2022-09-21T11:22:34.000Z,10.2
2022-09-21T11:23:33.951Z,9.63
2022-09-21T11:24:33.936Z,9.2
2022-09-21T11:25:33.921Z,9.14
2022-09-21T11:26:34.020Z,9.13
2022-09-21T11:27:33.929Z,8.93
2022-09-21T11:28:33.920Z,9.1
2022-09-21T11:29:33.976Z,9.43
2022-09-21T11:30:34.100Z,9.65
2022-09-21T11:31:33.928Z,9.73
2022-09-21T11:32:33.923Z,9.82
2022-09-21T11:33:33.988Z,9.88
2022-09-21T11:34:33.957Z,9.54
2022-09-21T11:35:33.924Z,9.65
2022-09-21T11:36:33.976Z,9.6
2022-09-21T11:37:33.972Z,9.29
2022-09-21T11:38:34.613Z,9.03
2022-09-21T11:39:34.011Z,8.63
2022-09-21T11:40:34.035Z,9.09
2022-09-21T11:41:33.917Z,9.09
2022-09-21T11:42:34.018Z,8.65
2022-09-21T11:43:34.142Z,9.22
2022-09-21T11:44:34.003Z,8.93
2022-09-21T11:45:34.032Z,9.37
2022-09-21T11:46:33.975Z,9.85
2022-09-21T11:47:33.922Z,9.47
2022-09-21T11:48:33.939Z,9.16
2022-09-21T11:49:33.927Z,8.41
2022-09-21T11:50:33.984Z,8.43
2022-09-21T11:51:33.975Z,8.46
2022-09-21T11:52:34.080Z,8.17
2022-09-21T11:53:34.012Z,8.11
2022-09-21T11:54:33.930Z,9.01
2022-09-21T11:55:33.927Z,8.34
2022-09-21T11:56:33.924Z,8.42
2022-09-21T11:57:33.932Z,8.41
2022-09-21T11:58:33.969Z,8.45
2022-09-21T11:59:33.998Z,8.93
2022-09-21T12:00:33.999Z,8.93
2022-09-21T12:01:34.010Z,9.25
2022-09-21T12:02:34.249Z,8.84
2022-09-21T12:03:33.939Z,8.51
2022-09-21T12:04:33.974Z,8.49
2022-09-21T12:05:33.986Z,8.28
2022-09-21T12:06:33.930Z,8.39
2022-09-21T12:07:33.933Z,8.34
2022-09-21T12:08:33.983Z,8.29
2022-09-21T12:09:33.953Z,8.42
2022-09-21T12:10:33.933Z,8.28
2022-09-21T12:11:34.002Z,8.59
2022-09-21T12:12:33.983Z,8.48
2022-09-21T12:13:33.922Z,8.74
2022-09-21T12:14:34.076Z,8.79
2022-09-21T12:15:34.004Z,8.57
2022-09-21T12:16:34.079Z,8.6
2022-09-21T12:17:33.942Z,8.81
2022-09-21T12:18:34.048Z,8.83
2022-09-21T12:19:33.976Z,8.6
2022-09-21T12:20:33.937Z,8.42
2022-09-21T12:21:33.934Z,8.58
2022-09-21T12:22:33.926Z,8.37
2022-09-21T12:23:33.984Z,8.34
2022-09-21T12:24:34.072Z,8.43
2022-09-21T12:25:33.932Z,7.71
2022-09-21T12:26:34.082Z,7.64
2022-09-21T12:27:34.001Z,7.57
2022-09-21T12:28:33.924Z,7.46
2022-09-21T12:29:33.973Z,7.32
2022-09-21T12:30:34.001Z,7.64
2022-09-21T12:31:34.023Z,7.84
2022-09-21T12:32:34.104Z,7.77
2022-09-21T12:33:34.061Z,8.17
2022-09-21T12:34:34.020Z,8.54
2022-09-21T12:35:34.094Z,7.97
2022-09-21T12:36:35.986Z,9.08
2022-09-21T12:37:34.103Z,9.54
2022-09-21T12:38:34.113Z,8.74
2022-09-21T12:39:34.205Z,8.48
2022-09-21T12:40:34.352Z,8.56
2022-09-21T12:41:34.062Z,8.33
2022-09-21T12:42:34.185Z,8.56
2022-09-21T12:43:34.285Z,8.64
2022-09-21T12:44:34.283Z,8.92
2022-09-21T12:45:33.935Z,8.68
2022-09-21T12:46:34.013Z,8.74
2022-09-21T12:47:33.988Z,8.57
2022-09-21T12:48:33.957Z,8.79
2022-09-21T12:49:33.936Z,8.49
2022-09-21T12:50:34.052Z,8.56
2022-09-21T12:51:33.940Z,8.46
2022-09-21T12:52:33.944Z,8.36
2022-09-21T12:53:33.932Z,8.29
2022-09-21T12:54:34.000Z,8.15
2022-09-21T12:55:34.071Z,7.96
2022-09-21T12:56:33.973Z,8.02
2022-09-21T12:58:10.907Z,7.81
2022-09-21T12:58:33.958Z,7.94
2022-09-21T12:59:34.018Z,8.02
2022-09-21T13:00:34.007Z,8.82
2022-09-21T13:01:34.113Z,7.89
2022-09-21T13:02:34.230Z,7.8
2022-09-21T13:03:34.025Z,7.94
2022-09-21T13:04:34.075Z,8.17
2022-09-21T13:05:33.945Z,8.3
2022-09-21T13:06:33.947Z,8.28
2022-09-21T13:07:33.972Z,8.15
2022-09-21T13:08:34.009Z,7.85
2022-09-21T13:09:34.120Z,7.97
2022-09-21T13:10:34.001Z,7.92
2022-09-21T13:11:34.028Z,8.21
2022-09-21T13:12:33.947Z,8.35
2022-09-21T13:13:33.958Z,8.07
2022-09-21T13:14:34.131Z,8.26
2022-09-21T13:15:33.960Z,8.27
2022-09-21T13:16:34.009Z,8.61
2022-09-21T13:17:33.957Z,8.41
2022-09-21T13:18:36.406Z,8.51